Time;durP1;ratioP1;P1;durP2;ratioP2;P2;SDS_P1;SDS_P2;PMS_P1;PMS_P2;Temp;Humidity;BMP_temperature;BMP_pressure;BME280_temperature;BME280_humidity;BME280_pressure;Samples;Min_cycle;Max_cycle;Signal;HPM_P1;HPM_P2
2023/01/01 06:00:40;;;;;;;4.20;3.80;;;13.10;97.20;;;;;;1687774;29;20239;-79
2023/01/01 06:01:31;;;;;;;4.20;3.70;;;13.10;97.20;;;;;;1687985;29;20211;-79
2023/01/01 06:02:23;;;;;;;4.47;4.07;;;13.10;97.20;;;;;;1687245;29;20207;-79
2023/01/01 06:03:14;;;;;;;4.53;4.10;;;13.10;97.20;;;;;;1687952;29;20212;-79
2023/01/01 06:04:07;;;;;;;5.32;4.20;;;13.10;97.20;;;;;;1687704;29;20197;-79
2023/01/01 06:04:57;;;;;;;4.65;4.25;;;13.10;97.20;;;;;;1687697;29;20200;-79
2023/01/01 06:05:49;;;;;;;4.43;3.97;;;13.10;97.20;;;;;;1687970;29;20208;-79
2023/01/01 06:06:40;;;;;;;4.40;4.00;;;13.10;97.20;;;;;;1687492;29;20216;-79
2023/01/01 06:07:32;;;;;;;4.17;3.87;;;13.10;97.20;;;;;;1687859;29;20212;-79
2023/01/01 06:08:22;;;;;;;4.90;4.15;;;13.10;97.20;;;;;;1687633;29;20208;-79
2023/01/01 06:09:14;;;;;;;5.13;4.37;;;13.10;97.20;;;;;;1687674;29;20593;-78
2023/01/01 06:10:05;;;;;;;5.10;4.25;;;13.10;97.20;;;;;;1687577;29;20666;-79
2023/01/01 06:10:59;;;;;;;5.13;4.05;;;13.10;97.20;;;;;;1687683;29;20702;-79
2023/01/01 06:11:49;;;;;;;5.53;4.28;;;13.10;97.20;;;;;;1687843;29;20205;-79
2023/01/01 06:12:41;;;;;;;5.00;4.17;;;13.10;97.20;;;;;;1687248;29;20205;-79
2023/01/01 06:13:32;;;;;;;5.00;4.20;;;13.20;97.20;;;;;;1687643;29;20239;-79
2023/01/01 06:14:24;;;;;;;6.15;4.80;;;13.20;97.20;;;;;;1687689;29;20259;-79
2023/01/01 06:15:15;;;;;;;4.45;4.05;;;13.20;97.20;;;;;;1687650;29;20710;-79
2023/01/01 06:16:10;;;;;;;4.60;4.07;;;13.20;97.20;;;;;;1687849;29;20673;-79
2023/01/01 06:17:01;;;;;;;4.65;3.80;;;13.20;97.20;;;;;;1687468;29;20212;-79
2023/01/01 06:17:52;;;;;;;6.77;4.33;;;13.20;97.20;;;;;;1687857;29;20213;-79
2023/01/01 06:18:43;;;;;;;6.32;5.70;;;13.20;97.20;;;;;;1687763;29;20211;-79
2023/01/01 06:19:35;;;;;;;6.67;5.17;;;13.20;97.20;;;;;;1687894;29;20216;-79
2023/01/01 06:20:25;;;;;;;4.43;4.00;;;13.20;97.20;;;;;;1687676;29;20240;-79
2023/01/01 06:21:20;;;;;;;5.70;4.70;;;13.20;97.20;;;;;;1687823;29;20208;-79
2023/01/01 06:22:11;;;;;;;5.78;4.30;;;13.20;97.20;;;;;;1687206;29;20216;-79
2023/01/01 06:23:02;;;;;;;5.03;4.20;;;13.20;97.20;;;;;;1687658;29;20208;-78
2023/01/01 06:23:54;;;;;;;4.05;3.63;;;13.30;97.20;;;;;;1687568;29;20216;-79
2023/01/01 06:24:46;;;;;;;4.93;3.42;;;13.30;97.20;;;;;;1687624;29;20205;-80
2023/01/01 06:25:37;;;;;;;3.22;2.92;;;13.20;97.20;;;;;;1687565;29;20271;-79
2023/01/01 06:26:30;;;;;;;3.93;3.53;;;13.30;97.20;;;;;;1687929;29;20225;-80
2023/01/01 06:27:21;;;;;;;5.70;3.50;;;13.30;97.20;;;;;;1687457;29;20263;-79
2023/01/01 06:28:13;;;;;;;4.10;3.60;;;13.30;97.20;;;;;;1687799;29;20210;-79
2023/01/01 06:29:03;;;;;;;4.25;3.55;;;13.30;97.20;;;;;;1687221;29;20667;-79
2023/01/01 06:29:56;;;;;;;3.50;3.20;;;13.30;97.20;;;;;;1687415;29;20607;-79
2023/01/01 06:30:47;;;;;;;5.75;3.90;;;13.30;97.20;;;;;;1687283;29;20256;-79
2023/01/01 06:31:40;;;;;;;4.27;3.87;;;13.30;97.20;;;;;;1692043;29;20218;-79
2023/01/01 06:32:31;;;;;;;3.10;2.80;;;13.30;97.20;;;;;;1680927;29;20209;-79
2023/01/01 06:33:22;;;;;;;4.77;3.63;;;13.30;97.20;;;;;;1686503;29;20208;-79
2023/01/01 06:34:13;;;;;;;5.13;3.55;;;13.30;97.20;;;;;;1687647;29;20212;-79
2023/01/01 06:35:05;;;;;;;4.13;3.70;;;13.30;97.20;;;;;;1687633;29;20214;-79
2023/01/01 06:35:56;;;;;;;6.70;3.45;;;13.30;97.20;;;;;;1688828;29;20221;-79
2023/01/01 06:36:48;;;;;;;5.53;3.90;;;13.30;97.20;;;;;;1688455;29;20706;-79
2023/01/01 06:37:39;;;;;;;3.78;3.10;;;13.30;97.20;;;;;;1687655;29;20215;-79
2023/01/01 06:38:31;;;;;;;3.87;3.50;;;13.30;97.20;;;;;;1687811;29;20207;-80
2023/01/01 06:39:22;;;;;;;5.10;3.75;;;13.30;97.20;;;;;;1687477;29;20213;-79
2023/01/01 06:40:14;;;;;;;3.80;3.40;;;13.30;97.20;;;;;;1687608;29;20659;-79
2023/01/01 06:41:06;;;;;;;4.32;3.78;;;13.30;97.20;;;;;;1687699;29;20208;-77
2023/01/01 06:41:58;;;;;;;6.68;3.72;;;13.30;97.20;;;;;;1689054;29;20212;-79
2023/01/01 06:42:49;;;;;;;4.90;4.10;;;13.30;97.20;;;;;;1693808;29;20581;-79
2023/01/01 06:43:41;;;;;;;4.50;3.60;;;13.30;97.20;;;;;;1692465;29;20239;-79
2023/01/01 06:44:33;;;;;;;4.63;3.90;;;13.30;97.20;;;;;;1694183;29;20208;-79
2023/01/01 06:45:23;;;;;;;4.13;3.20;;;13.30;97.20;;;;;;1694166;29;20612;-78
2023/01/01 06:46:17;;;;;;;4.87;3.47;;;13.30;97.20;;;;;;1694026;29;20203;-79
2023/01/01 06:47:10;;;;;;;5.00;3.28;;;13.30;97.20;;;;;;1694030;29;20667;-79
2023/01/01 06:48:01;;;;;;;4.38;3.40;;;13.30;97.20;;;;;;1694104;29;20211;-78
2023/01/01 06:48:55;;;;;;;5.17;3.57;;;13.30;97.20;;;;;;1694026;29;20209;-79
2023/01/01 06:49:45;;;;;;;6.15;3.50;;;13.30;97.20;;;;;;1694161;29;20211;-78
2023/01/01 06:50:37;;;;;;;3.90;3.50;;;13.20;97.20;;;;;;1694028;29;20235;-78
2023/01/01 06:51:30;;;;;;;5.22;3.90;;;13.20;97.20;;;;;;1694138;29;20207;-79
2023/01/01 06:52:22;;;;;;;4.82;3.35;;;13.20;97.20;;;;;;1693553;29;20203;-78
2023/01/01 06:53:12;;;;;;;4.25;3.30;;;13.20;97.20;;;;;;1694006;29;20208;-79
2023/01/01 06:54:05;;;;;;;3.23;2.93;;;13.20;97.20;;;;;;1692909;29;20658;-79
2023/01/01 06:54:56;;;;;;;3.72;3.42;;;13.20;97.20;;;;;;1687579;29;20209;-79
2023/01/01 06:55:48;;;;;;;5.10;3.53;;;13.20;97.20;;;;;;1687538;29;20208;-79
2023/01/01 06:56:40;;;;;;;3.45;3.15;;;13.20;97.20;;;;;;1687226;29;20973;-79
2023/01/01 06:57:33;;;;;;;3.85;2.90;;;13.30;97.20;;;;;;1687707;29;20208;-79
2023/01/01 06:58:25;;;;;;;4.03;3.33;;;13.30;97.20;;;;;;1687615;29;20208;-79
2023/01/01 06:59:17;;;;;;;3.80;3.20;;;13.30;97.20;;;;;;1687491;29;20228;-79
2023/01/01 07:00:08;;;;;;;6.88;3.33;;;13.30;97.20;;;;;;1687657;29;20685;-79
2023/01/01 07:01:04;;;;;;;3.60;3.20;;;13.30;97.20;;;;;;1687458;29;20200;-79
2023/01/01 07:01:55;;;;;;;4.15;3.20;;;13.30;97.20;;;;;;1687610;29;20212;-79
2023/01/01 07:02:49;;;;;;;3.87;3.30;;;13.30;97.20;;;;;;1687018;29;20201;-78
2023/01/01 07:03:41;;;;;;;3.72;3.38;;;13.30;97.20;;;;;;1687266;29;20204;-79
2023/01/01 07:04:33;;;;;;;3.17;2.83;;;13.30;97.20;;;;;;1687588;29;20208;-79
2023/01/01 07:05:23;;;;;;;4.25;3.60;;;13.30;97.20;;;;;;1687583;29;20671;-78
2023/01/01 07:06:15;;;;;;;4.10;3.57;;;13.30;97.20;;;;;;1687718;29;20551;-79
2023/01/01 07:07:06;;;;;;;4.45;3.15;;;13.30;97.20;;;;;;1687487;29;20585;-79
2023/01/01 07:07:58;;;;;;;3.77;3.43;;;13.30;97.20;;;;;;1687499;29;20224;-78
2023/01/01 07:08:48;;;;;;;3.67;2.83;;;13.30;97.20;;;;;;1691164;29;20228;-79
2023/01/01 07:09:40;;;;;;;3.70;3.13;;;13.30;97.20;;;;;;1693930;29;20223;-78
2023/01/01 07:10:31;;;;;;;3.63;3.25;;;13.30;97.20;;;;;;1693846;29;20502;-79
2023/01/01 07:11:26;;;;;;;7.50;3.10;;;13.30;97.20;;;;;;1694781;29;20214;-79
2023/01/01 07:12:17;;;;;;;4.80;2.90;;;13.30;97.20;;;;;;1694722;29;20218;-79
2023/01/01 07:13:09;;;;;;;3.43;2.60;;;13.30;97.20;;;;;;1695353;29;20685;-79
2023/01/01 07:14:00;;;;;;;4.82;3.30;;;13.30;97.20;;;;;;1695167;29;20217;-79
2023/01/01 07:14:51;;;;;;;6.10;3.53;;;13.30;97.20;;;;;;1695427;29;20212;-79
2023/01/01 07:15:43;;;;;;;4.00;3.33;;;13.30;97.20;;;;;;1695555;29;20203;-79
2023/01/01 07:16:33;;;;;;;5.25;3.28;;;13.30;97.20;;;;;;1695181;29;20270;-79
2023/01/01 07:17:25;;;;;;;4.67;2.97;;;13.30;97.20;;;;;;1695429;29;20259;-79
2023/01/01 07:18:18;;;;;;;4.40;3.15;;;13.30;97.20;;;;;;1695178;29;20219;-79
2023/01/01 07:19:10;;;;;;;3.40;3.10;;;13.30;97.20;;;;;;1695376;29;20215;-79
2023/01/01 07:20:00;;;;;;;3.80;3.22;;;13.30;97.20;;;;;;1695268;29;20211;-79
2023/01/01 07:20:54;;;;;;;3.10;2.80;;;13.30;97.20;;;;;;1695266;29;20769;-79
2023/01/01 07:21:50;;;;;;;4.45;2.92;;;13.30;97.20;;;;;;1695205;29;20219;-79
2023/01/01 07:22:42;;;;;;;4.40;2.90;;;13.30;97.20;;;;;;1694897;29;20211;-79
2023/01/01 07:23:34;;;;;;;3.83;3.05;;;13.40;97.20;;;;;;1695106;29;20208;-80
2023/01/01 07:24:26;;;;;;;3.00;2.80;;;13.40;97.20;;;;;;1695186;29;20212;-79
2023/01/01 07:25:16;;;;;;;3.60;2.95;;;13.40;97.20;;;;;;1694688;29;20215;-80
2023/01/01 07:26:08;;;;;;;4.20;3.43;;;13.40;97.20;;;;;;1688814;29;20681;-79
2023/01/01 07:27:00;;;;;;;5.90;2.92;;;13.40;97.20;;;;;;1688420;29;20231;-79
2023/01/01 07:27:50;;;;;;;3.38;3.00;;;13.40;97.20;;;;;;1688858;29;20572;-79
2023/01/01 07:28:42;;;;;;;2.67;2.47;;;13.40;97.20;;;;;;1688711;29;20592;-79
2023/01/01 07:29:34;;;;;;;3.10;2.80;;;13.40;97.20;;;;;;1686694;29;20259;-79
2023/01/01 07:30:25;;;;;;;4.70;3.17;;;13.40;97.20;;;;;;1689050;29;20224;-79
2023/01/01 07:31:16;;;;;;;5.87;3.30;;;13.50;97.20;;;;;;1685896;29;20664;-79
2023/01/01 07:32:13;;;;;;;3.38;3.08;;;13.50;97.20;;;;;;1676460;29;20216;-80
2023/01/01 07:33:03;;;;;;;3.78;2.92;;;13.50;97.20;;;;;;1676039;29;20221;-79
2023/01/01 07:33:56;;;;;;;3.30;2.87;;;13.50;97.20;;;;;;1681172;29;20205;-78
2023/01/01 07:34:47;;;;;;;3.63;3.05;;;13.50;97.20;;;;;;1682155;29;20573;-79
2023/01/01 07:35:39;;;;;;;3.33;3.03;;;13.50;97.20;;;;;;1682033;29;20209;-79
2023/01/01 07:36:29;;;;;;;4.53;3.10;;;13.50;97.20;;;;;;1682390;29;20694;-79
2023/01/01 07:37:24;;;;;;;2.60;2.40;;;13.60;97.20;;;;;;1681994;29;20655;-79
2023/01/01 07:38:15;;;;;;;4.85;2.85;;;13.60;97.20;;;;;;1682263;29;20260;-79
2023/01/01 07:39:07;;;;;;;4.77;3.17;;;13.60;97.20;;;;;;1682244;29;20257;-79
2023/01/01 07:39:58;;;;;;;2.90;2.60;;;13.60;97.20;;;;;;1682272;29;20449;-79
2023/01/01 07:40:49;;;;;;;3.67;3.37;;;13.60;97.20;;;;;;1682310;29;20225;-79
2023/01/01 07:41:40;;;;;;;4.18;2.97;;;13.70;97.20;;;;;;1682136;29;20212;-79
2023/01/01 07:42:32;;;;;;;3.93;3.07;;;13.70;97.20;;;;;;1681482;29;20205;-79
2023/01/01 07:43:23;;;;;;;3.45;2.63;;;13.70;97.20;;;;;;1682119;29;20298;-78
2023/01/01 07:44:14;;;;;;;3.20;2.90;;;13.70;97.20;;;;;;1682216;29;20209;-78
2023/01/01 07:45:06;;;;;;;3.17;2.88;;;13.70;97.20;;;;;;1682003;29;20212;-79
2023/01/01 07:45:58;;;;;;;4.65;2.90;;;13.70;97.20;;;;;;1681004;29;20197;-79
2023/01/01 07:46:48;;;;;;;3.97;3.05;;;13.70;97.20;;;;;;1682006;29;20231;-79
2023/01/01 07:47:40;;;;;;;3.97;3.27;;;13.70;97.20;;;;;;1682137;29;20201;-79
2023/01/01 07:48:31;;;;;;;3.53;2.88;;;13.70;97.20;;;;;;1682281;29;20213;-79
2023/01/01 07:49:24;;;;;;;4.03;3.30;;;13.70;97.20;;;;;;1681878;29;20208;-79
2023/01/01 07:50:16;;;;;;;3.80;2.88;;;13.70;97.20;;;;;;1681926;29;20649;-78
2023/01/01 07:51:08;;;;;;;3.33;2.90;;;13.70;97.20;;;;;;1682159;29;20710;-79
2023/01/01 07:51:58;;;;;;;4.32;3.15;;;13.70;97.20;;;;;;1682293;29;20209;-79
2023/01/01 07:52:50;;;;;;;9.13;3.10;;;13.70;97.20;;;;;;1681820;29;20216;-79
2023/01/01 07:53:41;;;;;;;4.30;2.88;;;13.70;97.20;;;;;;1682017;29;20209;-79
2023/01/01 07:54:32;;;;;;;4.20;3.10;;;13.70;97.20;;;;;;1682252;29;20603;-79
2023/01/01 07:55:24;;;;;;;5.72;3.20;;;13.70;97.20;;;;;;1682063;29;20232;-79
2023/01/01 07:56:15;;;;;;;3.88;3.30;;;13.70;97.20;;;;;;1682127;29;20209;-79
2023/01/01 07:57:06;;;;;;;3.72;3.30;;;13.70;97.20;;;;;;1682027;29;20242;-79
2023/01/01 07:57:58;;;;;;;4.23;3.70;;;13.70;97.20;;;;;;1682165;29;20201;-80
2023/01/01 07:58:48;;;;;;;3.42;3.13;;;13.70;97.20;;;;;;1682153;29;20204;-79
2023/01/01 07:59:40;;;;;;;4.40;3.20;;;13.70;97.20;;;;;;1682160;29;20668;-79
2023/01/01 08:00:31;;;;;;;3.85;3.50;;;13.70;97.20;;;;;;1682130;29;20259;-79
2023/01/01 08:01:23;;;;;;;4.00;3.60;;;13.70;97.20;;;;;;1682082;29;20274;-78
2023/01/01 08:02:13;;;;;;;3.83;3.42;;;13.70;97.20;;;;;;1681616;29;20206;-79
2023/01/01 08:03:05;;;;;;;4.07;3.07;;;13.70;97.20;;;;;;1683819;29;20213;-79
2023/01/01 08:03:56;;;;;;;4.72;3.42;;;13.70;97.20;;;;;;1683624;29;20304;-79
2023/01/01 08:04:49;;;;;;;5.27;4.10;;;13.70;97.20;;;;;;1684607;29;20205;-79
2023/01/01 08:05:40;;;;;;;6.35;3.50;;;13.70;97.20;;;;;;1683934;29;20235;-78
2023/01/01 08:06:32;;;;;;;4.30;3.20;;;13.70;97.20;;;;;;1684386;29;20208;-79
2023/01/01 08:07:22;;;;;;;4.15;3.25;;;13.70;97.20;;;;;;1684438;29;20216;-79
2023/01/01 08:08:14;;;;;;;4.00;3.67;;;13.70;97.20;;;;;;1684584;29;20648;-78
2023/01/01 08:09:05;;;;;;;4.15;3.75;;;13.70;97.20;;;;;;1684008;29;20706;-78
2023/01/01 08:09:56;;;;;;;4.17;3.57;;;13.70;97.20;;;;;;1684264;29;20585;-78
2023/01/01 08:10:48;;;;;;;4.13;3.70;;;13.70;97.20;;;;;;1682777;29;20233;-79
2023/01/01 08:11:39;;;;;;;4.35;3.60;;;13.70;97.20;;;;;;1682393;29;20213;-79
2023/01/01 08:12:30;;;;;;;4.30;3.90;;;13.70;97.20;;;;;;1681986;29;20219;-78
2023/01/01 08:13:21;;;;;;;4.40;3.80;;;13.70;97.20;;;;;;1682021;29;20225;-79
2023/01/01 08:14:13;;;;;;;4.97;4.53;;;13.70;97.20;;;;;;1682190;29;20213;-79
2023/01/01 08:15:05;;;;;;;5.00;4.30;;;13.70;97.20;;;;;;1682051;29;20213;-79
2023/01/01 08:15:57;;;;;;;5.28;4.40;;;13.80;97.20;;;;;;1681869;29;20205;-79
2023/01/01 08:16:48;;;;;;;5.25;4.00;;;13.70;97.20;;;;;;1681765;29;20631;-79
2023/01/01 08:17:40;;;;;;;4.63;4.23;;;13.80;97.20;;;;;;1682059;29;20609;-79
2023/01/01 08:18:31;;;;;;;5.07;4.50;;;13.80;97.20;;;;;;1682087;29;20220;-79
2023/01/01 08:19:23;;;;;;;5.07;4.57;;;13.80;97.20;;;;;;1682150;29;20211;-79
2023/01/01 08:20:15;;;;;;;6.38;4.60;;;13.80;97.20;;;;;;1681992;29;20213;-79
2023/01/01 08:21:06;;;;;;;4.88;4.30;;;13.80;97.20;;;;;;1682221;29;20206;-79
2023/01/01 08:21:57;;;;;;;5.00;3.67;;;13.80;97.20;;;;;;1681479;29;20210;-79
2023/01/01 08:22:49;;;;;;;4.40;3.80;;;13.80;97.20;;;;;;1681704;29;20204;-79
2023/01/01 08:23:40;;;;;;;5.05;4.00;;;13.80;97.20;;;;;;1682153;29;20217;-79
2023/01/01 08:24:31;;;;;;;3.60;3.30;;;13.80;97.20;;;;;;1682344;29;20213;-78
2023/01/01 08:25:22;;;;;;;4.78;3.30;;;13.80;97.20;;;;;;1682741;29;20699;-79
2023/01/01 08:26:15;;;;;;;6.27;3.57;;;13.90;97.20;;;;;;1682363;29;20739;-80
2023/01/01 08:27:06;;;;;;;4.63;4.07;;;13.90;97.20;;;;;;1682531;29;20607;-79
2023/01/01 08:27:58;;;;;;;6.97;3.30;;;13.90;97.20;;;;;;1682412;29;20701;-78
2023/01/01 08:28:49;;;;;;;4.78;3.72;;;14.00;97.20;;;;;;1682481;29;20464;-77
2023/01/01 08:29:41;;;;;;;3.60;3.13;;;14.00;97.20;;;;;;1682361;29;20220;-77
2023/01/01 08:30:32;;;;;;;5.07;4.20;;;14.00;97.20;;;;;;1682010;29;20229;-79
2023/01/01 08:31:23;;;;;;;3.33;3.03;;;14.00;97.20;;;;;;1682078;29;20221;-77
2023/01/01 08:32:14;;;;;;;4.55;3.20;;;14.10;97.20;;;;;;1681515;29;20209;-77
2023/01/01 08:33:06;;;;;;;5.53;3.93;;;14.10;97.20;;;;;;1682223;29;20659;-77
2023/01/01 08:33:59;;;;;;;3.42;2.80;;;14.10;97.20;;;;;;1682102;29;20209;-77
2023/01/01 08:34:50;;;;;;;4.93;3.65;;;14.20;97.20;;;;;;1682083;29;20220;-77
2023/01/01 08:35:43;;;;;;;3.30;3.00;;;14.20;97.20;;;;;;1682298;29;20240;-78
2023/01/01 08:36:35;;;;;;;3.65;3.35;;;14.30;97.20;;;;;;1682277;29;20220;-77
2023/01/01 08:37:27;;;;;;;4.45;2.92;;;14.40;97.20;;;;;;1682189;29;20230;-77
2023/01/01 08:38:17;;;;;;;4.10;3.30;;;14.50;97.20;;;;;;1682156;29;20709;-78
2023/01/01 08:39:10;;;;;;;3.50;3.20;;;14.60;97.20;;;;;;1682099;29;20672;-77
2023/01/01 08:40:01;;;;;;;4.95;2.80;;;14.70;97.20;;;;;;1682005;29;20225;-77
2023/01/01 08:40:53;;;;;;;4.70;3.57;;;14.90;97.20;;;;;;1682203;29;20248;-77
2023/01/01 08:41:43;;;;;;;6.60;3.17;;;15.10;97.20;;;;;;1682331;29;20583;-77
2023/01/01 08:42:35;;;;;;;3.40;3.00;;;15.30;97.20;;;;;;1681451;29;20205;-77
2023/01/01 08:43:26;;;;;;;4.97;3.60;;;15.70;97.20;;;;;;1681920;29;20225;-77
2023/01/01 08:44:17;;;;;;;5.37;3.60;;;16.20;97.20;;;;;;1682332;29;20231;-77
2023/01/01 08:45:09;;;;;;;4.45;3.35;;;16.90;97.20;;;;;;1682431;29;20237;-78
2023/01/01 08:46:01;;;;;;;4.35;3.80;;;17.60;97.20;;;;;;1682058;29;20250;-77
2023/01/01 08:46:52;;;;;;;4.43;4.03;;;18.30;97.20;;;;;;1681751;29;20209;-79
2023/01/01 08:47:43;;;;;;;4.80;3.60;;;18.90;97.20;;;;;;1682090;29;20209;-78
2023/01/01 08:48:34;;;;;;;5.70;4.80;;;19.60;97.20;;;;;;1682013;29;20235;-78
2023/01/01 08:49:26;;;;;;;4.77;3.50;;;20.00;97.20;;;;;;1682232;29;20205;-78
2023/01/01 08:50:16;;;;;;;3.65;3.20;;;20.30;97.20;;;;;;1681984;29;20209;-78
2023/01/01 08:51:10;;;;;;;3.77;3.10;;;20.40;97.20;;;;;;1682152;29;20316;-78
2023/01/01 08:52:01;;;;;;;5.00;3.90;;;20.50;97.20;;;;;;1681876;29;20213;-78
2023/01/01 08:52:53;;;;;;;5.70;3.73;;;20.50;97.20;;;;;;1681482;29;20219;-79
2023/01/01 08:53:44;;;;;;;4.25;3.70;;;20.60;97.20;;;;;;1680356;29;20299;-78
2023/01/01 08:54:35;;;;;;;3.97;3.30;;;20.70;97.20;;;;;;1679982;29;20214;-78
2023/01/01 08:55:26;;;;;;;2.65;2.45;;;20.90;97.20;;;;;;1680253;29;20458;-78
2023/01/01 08:56:19;;;;;;;4.43;3.60;;;21.00;97.20;;;;;;1682990;29;20213;-78
2023/01/01 08:57:10;;;;;;;4.28;3.30;;;21.10;97.20;;;;;;1687933;29;20232;-78
2023/01/01 08:58:05;;;;;;;5.53;3.85;;;21.20;97.20;;;;;;1682194;29;20205;-78
2023/01/01 08:58:57;;;;;;;3.85;3.45;;;21.10;97.20;;;;;;1681834;29;20202;-78
2023/01/01 08:59:48;;;;;;;4.85;3.03;;;21.10;97.20;;;;;;1681697;29;20201;-78
2023/01/01 09:00:39;;;;;;;4.93;3.70;;;21.00;97.20;;;;;;1681719;29;20231;-78
2023/01/01 09:01:30;;;;;;;3.42;3.13;;;21.00;97.20;;;;;;1681980;29;20216;-79
2023/01/01 09:02:22;;;;;;;3.40;3.10;;;21.00;97.20;;;;;;1680692;29;20287;-78
2023/01/01 09:03:14;;;;;;;4.88;3.58;;;20.90;97.20;;;;;;1680080;29;20216;-78
2023/01/01 09:04:06;;;;;;;5.88;3.70;;;20.90;97.20;;;;;;1683480;29;20214;-78
2023/01/01 09:04:58;;;;;;;3.88;3.58;;;20.90;97.20;;;;;;1681814;29;20257;-79
2023/01/01 09:05:49;;;;;;;6.50;4.38;;;20.80;97.20;;;;;;1676171;29;20202;-78
2023/01/01 09:06:42;;;;;;;5.90;3.10;;;20.80;97.20;;;;;;1675452;29;20497;-78
2023/01/01 09:07:32;;;;;;;4.28;3.40;;;20.80;97.20;;;;;;1678445;29;20220;-78
2023/01/01 09:08:25;;;;;;;3.60;3.23;;;20.90;97.20;;;;;;1680903;29;20197;-79
2023/01/01 09:09:16;;;;;;;4.43;3.13;;;21.00;97.20;;;;;;1681727;29;20209;-78
2023/01/01 09:10:08;;;;;;;2.63;2.42;;;21.30;97.20;;;;;;1681861;29;20209;-78
2023/01/01 09:11:00;;;;;;;3.50;2.80;;;21.60;97.20;;;;;;1681495;29;20229;-79
2023/01/01 09:11:53;;;;;;;3.10;2.90;;;22.20;97.20;;;;;;1681486;29;20745;-78
2023/01/01 09:12:44;;;;;;;4.80;3.15;;;22.90;97.20;;;;;;1681202;29;20217;-79
2023/01/01 09:13:36;;;;;;;4.07;3.00;;;23.70;97.20;;;;;;1680511;29;20202;-79
2023/01/01 09:14:26;;;;;;;5.85;3.55;;;24.50;97.20;;;;;;1680231;29;20220;-79
2023/01/01 09:15:19;;;;;;;3.70;2.50;;;25.20;97.20;;;;;;1681327;29;20207;-78
2023/01/01 09:16:09;;;;;;;4.18;3.13;;;25.20;97.20;;;;;;1680844;29;20209;-78
2023/01/01 09:17:02;;;;;;;4.30;2.90;;;25.20;97.20;;;;;;1679644;29;20212;-79
2023/01/01 09:17:53;;;;;;;4.35;2.97;;;25.00;97.20;;;;;;1680952;29;20638;-79
2023/01/01 09:18:45;;;;;;;3.30;3.00;;;25.10;97.20;;;;;;1681922;29;20205;-78
2023/01/01 09:19:35;;;;;;;3.63;3.30;;;25.30;97.20;;;;;;1681369;29;20217;-79
2023/01/01 09:20:27;;;;;;;4.57;3.00;;;25.50;97.20;;;;;;1681684;29;20213;-78
2023/01/01 09:21:18;;;;;;;3.67;2.80;;;25.80;97.20;;;;;;1681549;29;20209;-78
2023/01/01 09:22:12;;;;;;;4.20;3.20;;;26.00;97.20;;;;;;1681150;29;20213;-78
2023/01/01 09:23:03;;;;;;;4.28;2.50;;;25.90;97.20;;;;;;1681730;29;20267;-78
2023/01/01 09:23:54;;;;;;;3.53;3.00;;;25.80;97.20;;;;;;1681481;29;20205;-78
2023/01/01 09:24:45;;;;;;;3.45;3.03;;;25.70;97.20;;;;;;1681813;29;20206;-78
2023/01/01 09:25:37;;;;;;;4.17;3.17;;;25.90;97.20;;;;;;1681369;29;20209;-79
2023/01/01 09:26:28;;;;;;;3.35;2.78;;;26.40;97.20;;;;;;1681792;29;20583;-79
2023/01/01 09:27:19;;;;;;;2.90;2.70;;;26.90;97.20;;;;;;1681343;29;20582;-78
2023/01/01 09:28:12;;;;;;;3.70;3.20;;;27.30;97.20;;;;;;1681659;29;20213;-79
2023/01/01 09:29:04;;;;;;;3.10;2.80;;;27.50;97.20;;;;;;1681736;29;20284;-79
2023/01/01 09:29:55;;;;;;;4.18;2.95;;;27.80;97.20;;;;;;1681512;29;20212;-79
2023/01/01 09:30:46;;;;;;;5.77;3.00;;;27.80;97.20;;;;;;1681618;29;20225;-79
2023/01/01 09:31:37;;;;;;;7.80;3.83;;;27.90;97.20;;;;;;1681261;29;20257;-78
2023/01/01 09:32:29;;;;;;;4.90;4.40;;;28.00;96.80;;;;;;1681118;29;20216;-79
2023/01/01 09:33:19;;;;;;;4.07;3.78;;;28.10;96.40;;;;;;1681029;29;20457;-78
2023/01/01 09:34:12;;;;;;;4.43;3.60;;;28.10;96.40;;;;;;1681055;29;20205;-79
2023/01/01 09:35:03;;;;;;;4.00;3.67;;;28.20;95.80;;;;;;1681601;29;20205;-78
2023/01/01 09:35:55;;;;;;;4.32;3.33;;;28.20;95.80;;;;;;1681300;29;20204;-79
2023/01/01 09:36:45;;;;;;;5.75;2.90;;;28.20;95.90;;;;;;1681448;29;20588;-79
2023/01/01 09:37:38;;;;;;;3.80;3.10;;;28.20;95.80;;;;;;1681597;29;20292;-78
2023/01/01 09:38:29;;;;;;;5.57;3.03;;;28.10;95.20;;;;;;1681540;29;20457;-78
2023/01/01 09:39:21;;;;;;;6.07;3.07;;;28.10;94.90;;;;;;1681296;29;20300;-78
2023/01/01 09:40:25;;;;;;;4.15;2.85;;;27.90;94.90;;;;;;1681436;29;20213;-78
2023/01/01 09:41:25;;;;;;;5.05;2.92;;;27.70;95.10;;;;;;1681367;29;20215;-78
2023/01/01 09:42:25;;;;;;;3.25;2.95;;;27.70;95.40;;;;;;1675898;29;20210;-79
2023/01/01 09:43:28;;;;;;;3.70;3.35;;;27.50;95.20;;;;;;1681517;29;20627;-78
2023/01/01 09:44:34;;;;;;;6.07;3.42;;;27.30;95.60;;;;;;1677127;29;20649;-79
2023/01/01 09:45:29;;;;;;;3.90;2.90;;;27.10;95.80;;;;;;1681702;29;20204;-78
2023/01/01 09:46:23;;;;;;;4.35;3.95;;;27.00;96.00;;;;;;1681250;29;20209;-79
2023/01/01 09:47:30;;;;;;;6.80;4.13;;;26.90;96.20;;;;;;1681324;29;20216;-78
2023/01/01 09:48:24;;;;;;;4.55;3.70;;;26.90;96.40;;;;;;1676639;29;20242;-79
2023/01/01 09:49:23;;;;;;;6.20;4.75;;;26.80;96.60;;;;;;1681502;29;20210;-78
2023/01/01 09:50:17;;;;;;;5.50;4.50;;;26.80;96.60;;;;;;1675313;29;20206;-79
2023/01/01 09:51:15;;;;;;;4.18;3.22;;;27.00;96.50;;;;;;1675056;29;20302;-78
2023/01/01 09:52:11;;;;;;;4.22;3.20;;;27.20;96.30;;;;;;1681801;29;20197;-79
2023/01/01 09:53:10;;;;;;;3.95;3.17;;;27.40;95.80;;;;;;1681676;29;20338;-79
2023/01/01 09:54:09;;;;;;;4.65;4.15;;;27.70;95.20;;;;;;1681489;29;20243;-79
2023/01/01 09:55:04;;;;;;;6.35;5.10;;;28.10;94.80;;;;;;1681445;29;20300;-79
2023/01/01 09:55:58;;;;;;;5.18;4.05;;;28.70;93.80;;;;;;1681479;29;20222;-79
2023/01/01 09:56:53;;;;;;;6.72;3.75;;;29.30;93.10;;;;;;1680495;29;20212;-79
2023/01/01 09:57:45;;;;;;;4.85;4.35;;;29.80;92.10;;;;;;1678779;29;20200;-79
2023/01/01 09:58:37;;;;;;;4.15;3.83;;;30.30;91.20;;;;;;1681244;29;20217;-79
2023/01/01 09:59:29;;;;;;;5.03;4.40;;;30.60;90.20;;;;;;1679848;29;20326;-79
2023/01/01 10:00:20;;;;;;;5.55;4.45;;;30.80;89.90;;;;;;1675016;29;20221;-79
2023/01/01 10:01:22;;;;;;;4.80;4.28;;;30.80;89.70;;;;;;1678659;29;20269;-79
2023/01/01 10:02:29;;;;;;;6.00;4.40;;;31.10;89.10;;;;;;1681021;29;20217;-79
2023/01/01 10:03:30;;;;;;;6.55;4.45;;;31.10;88.30;;;;;;1681532;29;20189;-79
2023/01/01 10:04:33;;;;;;;5.65;4.40;;;31.30;88.20;;;;;;1681598;29;20672;-79
2023/01/01 10:05:32;;;;;;;4.32;3.75;;;31.40;87.80;;;;;;1681852;29;20229;-78
2023/01/01 10:06:27;;;;;;;4.47;4.07;;;31.60;87.30;;;;;;1681668;29;20288;-79
2023/01/01 10:07:28;;;;;;;5.05;3.58;;;31.70;86.90;;;;;;1681332;29;20209;-79
2023/01/01 10:08:34;;;;;;;4.50;3.72;;;31.90;86.40;;;;;;1681426;29;20205;-79
2023/01/01 10:09:37;;;;;;;3.78;3.40;;;32.10;85.80;;;;;;1681776;29;20201;-79
2023/01/01 10:10:39;;;;;;;4.05;3.13;;;32.30;85.70;;;;;;1681692;29;20672;-78
2023/01/01 10:11:40;;;;;;;3.80;3.20;;;32.30;84.90;;;;;;1681446;29;20200;-79
2023/01/01 10:12:41;;;;;;;4.40;2.95;;;32.30;84.90;;;;;;1681313;29;20248;-78
2023/01/01 10:13:37;;;;;;;4.60;3.28;;;32.20;85.00;;;;;;1681450;29;20595;-79
2023/01/01 10:14:33;;;;;;;5.47;3.45;;;32.10;84.90;;;;;;1681227;29;20203;-79
2023/01/01 10:15:29;;;;;;;4.22;3.40;;;32.00;85.00;;;;;;1681442;29;20718;-79
2023/01/01 10:16:31;;;;;;;6.03;3.10;;;32.00;85.20;;;;;;1681165;29;20198;-78
2023/01/01 10:17:32;;;;;;;3.72;2.60;;;32.00;84.90;;;;;;1681179;29;20209;-79
2023/01/01 10:18:26;;;;;;;3.20;2.90;;;32.00;84.40;;;;;;1681330;29;20220;-79
2023/01/01 10:19:25;;;;;;;3.15;2.92;;;32.00;84.60;;;;;;1681489;29;20209;-79
2023/01/01 10:20:21;;;;;;;4.35;3.20;;;32.10;84.50;;;;;;1681494;29;20197;-79
2023/01/01 10:21:16;;;;;;;3.60;2.70;;;32.20;84.30;;;;;;1681694;29;20571;-79
2023/01/01 10:22:14;;;;;;;3.00;2.70;;;32.30;84.00;;;;;;1681483;29;20555;-80
2023/01/01 10:23:17;;;;;;;4.13;3.20;;;32.40;83.70;;;;;;1681774;29;20205;-80
2023/01/01 10:24:30;;;;;;;5.45;3.10;;;32.60;83.60;;;;;;1681567;29;20632;-79
2023/01/01 10:25:25;;;;;;;3.25;2.80;;;32.90;83.20;;;;;;1681446;29;20688;-79
2023/01/01 10:26:18;;;;;;;7.18;3.15;;;33.10;82.30;;;;;;1681326;29;20220;-79
2023/01/01 10:27:21;;;;;;;4.68;3.17;;;33.10;82.10;;;;;;1681451;29;20236;-79
2023/01/01 10:28:19;;;;;;;3.28;2.60;;;33.00;82.00;;;;;;1681465;29;20653;-78
2023/01/01 10:29:15;;;;;;;4.75;2.55;;;33.00;82.20;;;;;;1681575;29;20775;-78
2023/01/01 10:30:15;;;;;;;2.83;2.50;;;33.00;82.20;;;;;;1681799;29;20190;-78
2023/01/01 10:31:14;;;;;;;4.85;3.05;;;33.00;81.90;;;;;;1681456;29;20691;-78
2023/01/01 10:32:18;;;;;;;3.33;2.88;;;33.20;81.80;;;;;;1681351;29;20252;-79
2023/01/01 10:33:12;;;;;;;4.35;3.00;;;33.30;81.70;;;;;;1681132;29;20417;-80
2023/01/01 10:34:14;;;;;;;3.30;2.90;;;33.50;81.50;;;;;;1681499;29;20206;-79
2023/01/01 10:35:13;;;;;;;3.30;2.80;;;33.60;81.30;;;;;;1681450;29;20264;-78
2023/01/01 10:36:13;;;;;;;4.30;2.97;;;33.60;81.00;;;;;;1681289;29;20213;-77